sensor_id;sensor_type;location;lat;lon;timestamp;pressure;altitude;pressure_sealevel;temperature;humidity
37860;BME280;23698;52.014;5.190;2024-01-25T00:01:20;102723.91;;;18.35;100.00
37860;BME280;23698;52.014;5.190;2024-01-25T00:04:07;102725.81;;;18.91;100.00
37860;BME280;23698;52.014;5.190;2024-01-25T00:06:55;102721.75;;;18.87;100.00
37860;BME280;23698;52.014;5.190;2024-01-25T00:09:42;102727.31;;;18.16;100.00
37860;BME280;23698;52.014;5.190;2024-01-25T00:12:29;102722.19;;;18.34;100.00
37860;BME280;23698;52.014;5.190;2024-01-25T00:15:17;102726.25;;;18.95;100.00
37860;BME280;23698;52.014;5.190;2024-01-25T00:18:03;102736.81;;;18.41;100.00
37860;BME280;23698;52.014;5.190;2024-01-25T00:20:50;102725.34;;;19.22;98.82
37860;BME280;23698;52.014;5.190;2024-01-25T00:23:37;102725.59;;;19.83;92.25
37860;BME280;23698;52.014;5.190;2024-01-25T00:26:23;102723.91;;;18.92;97.58
37860;BME280;23698;52.014;5.190;2024-01-25T00:29:10;102729.34;;;18.57;100.00
37860;BME280;23698;52.014;5.190;2024-01-25T00:31:58;102726.91;;;18.97;99.78
37860;BME280;23698;52.014;5.190;2024-01-25T00:34:45;102724.59;;;18.44;99.03
37860;BME280;23698;52.014;5.190;2024-01-25T00:37:32;102725.91;;;18.05;100.00
37860;BME280;23698;52.014;5.190;2024-01-25T00:40:19;102727.25;;;18.09;100.00
37860;BME280;23698;52.014;5.190;2024-01-25T00:43:06;102738.78;;;18.47;100.00
37860;BME280;23698;52.014;5.190;2024-01-25T00:45:53;102734.22;;;19.73;92.19
37860;BME280;23698;52.014;5.190;2024-01-25T00:48:42;102734.09;;;18.98;98.04
37860;BME280;23698;52.014;5.190;2024-01-25T00:51:29;102732.09;;;18.85;96.16
37860;BME280;23698;52.014;5.190;2024-01-25T00:54:17;102735.63;;;19.07;96.92
37860;BME280;23698;52.014;5.190;2024-01-25T00:57:04;102737.31;;;18.02;100.00
37860;BME280;23698;52.014;5.190;2024-01-25T00:59:52;102739.75;;;18.90;98.19
37860;BME280;23698;52.014;5.190;2024-01-25T01:02:40;102748.13;;;17.88;100.00
37860;BME280;23698;52.014;5.190;2024-01-25T01:05:29;102751.00;;;19.36;94.45
37860;BME280;23698;52.014;5.190;2024-01-25T01:08:17;102753.22;;;18.35;100.00
37860;BME280;23698;52.014;5.190;2024-01-25T01:11:04;102756.97;;;18.05;100.00
37860;BME280;23698;52.014;5.190;2024-01-25T01:13:50;102746.75;;;16.58;100.00
37860;BME280;23698;52.014;5.190;2024-01-25T01:16:37;102758.81;;;17.98;100.00
37860;BME280;23698;52.014;5.190;2024-01-25T01:19:24;102767.09;;;18.48;100.00
37860;BME280;23698;52.014;5.190;2024-01-25T01:22:12;102774.19;;;18.85;96.04
37860;BME280;23698;52.014;5.190;2024-01-25T01:24:59;102782.78;;;18.33;99.60
37860;BME280;23698;52.014;5.190;2024-01-25T01:27:45;102783.34;;;18.06;97.11
37860;BME280;23698;52.014;5.190;2024-01-25T01:30:32;102771.34;;;18.51;99.14
37860;BME280;23698;52.014;5.190;2024-01-25T01:33:18;102772.31;;;18.00;100.00
37860;BME280;23698;52.014;5.190;2024-01-25T01:36:06;102771.91;;;18.03;100.00
37860;BME280;23698;52.014;5.190;2024-01-25T01:38:54;102769.22;;;18.24;99.91
37860;BME280;23698;52.014;5.190;2024-01-25T01:41:40;102782.97;;;18.53;96.75
37860;BME280;23698;52.014;5.190;2024-01-25T01:44:27;102787.22;;;18.55;95.78
37860;BME280;23698;52.014;5.190;2024-01-25T01:47:14;102786.84;;;18.37;92.84
37860;BME280;23698;52.014;5.190;2024-01-25T01:50:01;102782.44;;;17.99;99.45
37860;BME280;23698;52.014;5.190;2024-01-25T01:52:49;102787.53;;;18.02;98.46
37860;BME280;23698;52.014;5.190;2024-01-25T01:55:37;102799.91;;;17.47;100.00
37860;BME280;23698;52.014;5.190;2024-01-25T01:58:26;102793.69;;;18.04;100.00
37860;BME280;23698;52.014;5.190;2024-01-25T02:01:14;102803.44;;;17.41;100.00
37860;BME280;23698;52.014;5.190;2024-01-25T02:04:00;102811.31;;;17.80;98.66
37860;BME280;23698;52.014;5.190;2024-01-25T02:06:47;102805.72;;;17.73;98.87
37860;BME280;23698;52.014;5.190;2024-01-25T02:09:34;102804.38;;;17.48;100.00
37860;BME280;23698;52.014;5.190;2024-01-25T02:12:23;102809.53;;;16.14;100.00
37860;BME280;23698;52.014;5.190;2024-01-25T02:15:09;102805.69;;;17.22;100.00
37860;BME280;23698;52.014;5.190;2024-01-25T02:17:56;102810.50;;;17.20;100.00
37860;BME280;23698;52.014;5.190;2024-01-25T02:20:42;102807.06;;;16.65;100.00
37860;BME280;23698;52.014;5.190;2024-01-25T02:23:31;102807.59;;;16.22;100.00
37860;BME280;23698;52.014;5.190;2024-01-25T02:26:17;102812.03;;;16.23;100.00
37860;BME280;23698;52.014;5.190;2024-01-25T02:29:04;102816.09;;;15.57;100.00
37860;BME280;23698;52.014;5.190;2024-01-25T02:31:52;102820.25;;;16.23;100.00
37860;BME280;23698;52.014;5.190;2024-01-25T02:34:39;102825.97;;;16.98;100.00
37860;BME280;23698;52.014;5.190;2024-01-25T02:37:26;102825.34;;;17.70;100.00
37860;BME280;23698;52.014;5.190;2024-01-25T02:40:15;102826.84;;;17.43;100.00
37860;BME280;23698;52.014;5.190;2024-01-25T02:43:01;102838.56;;;18.33;96.14
37860;BME280;23698;52.014;5.190;2024-01-25T02:45:48;102836.31;;;18.22;94.81
37860;BME280;23698;52.014;5.190;2024-01-25T02:48:36;102832.34;;;18.46;89.21
37860;BME280;23698;52.014;5.190;2024-01-25T02:51:22;102828.94;;;17.56;98.00
37860;BME280;23698;52.014;5.190;2024-01-25T02:54:09;102831.75;;;17.63;97.56
37860;BME280;23698;52.014;5.190;2024-01-25T02:56:57;102830.06;;;17.62;98.63
37860;BME280;23698;52.014;5.190;2024-01-25T02:59:44;102833.75;;;17.54;100.00
37860;BME280;23698;52.014;5.190;2024-01-25T03:02:32;102838.88;;;17.57;99.88
37860;BME280;23698;52.014;5.190;2024-01-25T03:05:18;102831.09;;;18.27;93.11
37860;BME280;23698;52.014;5.190;2024-01-25T03:08:06;102831.59;;;17.49;95.93
37860;BME280;23698;52.014;5.190;2024-01-25T03:10:52;102830.31;;;17.82;95.66
37860;BME280;23698;52.014;5.190;2024-01-25T03:13:41;102829.97;;;16.72;100.00
37860;BME280;23698;52.014;5.190;2024-01-25T03:16:27;102827.44;;;17.39;100.00
37860;BME280;23698;52.014;5.190;2024-01-25T03:19:14;102827.53;;;17.45;99.75
37860;BME280;23698;52.014;5.190;2024-01-25T03:22:00;102820.31;;;16.99;100.00
37860;BME280;23698;52.014;5.190;2024-01-25T03:24:47;102818.03;;;16.88;100.00
37860;BME280;23698;52.014;5.190;2024-01-25T03:27:35;102818.63;;;16.98;100.00
37860;BME280;23698;52.014;5.190;2024-01-25T03:30:23;102825.84;;;18.10;96.20
37860;BME280;23698;52.014;5.190;2024-01-25T03:33:09;102825.44;;;18.14;91.85
37860;BME280;23698;52.014;5.190;2024-01-25T03:35:56;102827.69;;;17.14;99.43
37860;BME280;23698;52.014;5.190;2024-01-25T03:38:42;102833.75;;;17.69;93.83
37860;BME280;23698;52.014;5.190;2024-01-25T03:41:29;102837.56;;;18.19;89.24
37860;BME280;23698;52.014;5.190;2024-01-25T03:44:16;102839.78;;;18.09;87.61
37860;BME280;23698;52.014;5.190;2024-01-25T03:47:05;102830.91;;;17.92;85.94
37860;BME280;23698;52.014;5.190;2024-01-25T03:49:51;102836.50;;;17.24;92.48
37860;BME280;23698;52.014;5.190;2024-01-25T03:52:38;102825.53;;;17.09;91.66
37860;BME280;23698;52.014;5.190;2024-01-25T03:55:25;102820.16;;;17.31;89.82
37860;BME280;23698;52.014;5.190;2024-01-25T03:58:11;102818.63;;;17.43;87.17
37860;BME280;23698;52.014;5.190;2024-01-25T04:00:58;102817.56;;;16.99;90.32
37860;BME280;23698;52.014;5.190;2024-01-25T04:03:46;102828.16;;;17.17;90.70
37860;BME280;23698;52.014;5.190;2024-01-25T04:06:32;102828.09;;;17.41;87.54
37860;BME280;23698;52.014;5.190;2024-01-25T04:09:19;102825.16;;;17.27;85.69
37860;BME280;23698;52.014;5.190;2024-01-25T04:12:06;102832.81;;;17.47;86.92
37860;BME280;23698;52.014;5.190;2024-01-25T04:14:52;102821.69;;;17.33;86.21
37860;BME280;23698;52.014;5.190;2024-01-25T04:17:38;102826.31;;;17.18;86.91
37860;BME280;23698;52.014;5.190;2024-01-25T04:20:26;102823.81;;;17.08;85.69
37860;BME280;23698;52.014;5.190;2024-01-25T04:23:14;102829.47;;;16.69;89.76
37860;BME280;23698;52.014;5.190;2024-01-25T04:26:00;102830.88;;;16.65;91.68
37860;BME280;23698;52.014;5.190;2024-01-25T04:28:47;102836.69;;;15.84;100.00
37860;BME280;23698;52.014;5.190;2024-01-25T04:31:34;102829.56;;;15.02;100.00
37860;BME280;23698;52.014;5.190;2024-01-25T04:34:21;102828.22;;;16.02;100.00
37860;BME280;23698;52.014;5.190;2024-01-25T04:37:09;102827.16;;;15.72;100.00
37860;BME280;23698;52.014;5.190;2024-01-25T04:39:55;102831.88;;;15.94;100.00
37860;BME280;23698;52.014;5.190;2024-01-25T04:42:42;102828.13;;;16.88;100.00
37860;BME280;23698;52.014;5.190;2024-01-25T04:45:29;102834.03;;;15.67;100.00
37860;BME280;23698;52.014;5.190;2024-01-25T04:48:15;102842.13;;;16.23;100.00
37860;BME280;23698;52.014;5.190;2024-01-25T04:51:02;102842.25;;;16.53;98.90
37860;BME280;23698;52.014;5.190;2024-01-25T04:53:50;102839.28;;;16.86;97.61
37860;BME280;23698;52.014;5.190;2024-01-25T04:56:36;102846.88;;;16.99;98.02
37860;BME280;23698;52.014;5.190;2024-01-25T04:59:23;102846.97;;;17.06;94.07
37860;BME280;23698;52.014;5.190;2024-01-25T05:02:11;102849.38;;;16.39;96.89
37860;BME280;23698;52.014;5.190;2024-01-25T05:04:58;102847.69;;;16.85;97.13
37860;BME280;23698;52.014;5.190;2024-01-25T05:07:44;102845.44;;;16.88;96.23
37860;BME280;23698;52.014;5.190;2024-01-25T05:10:33;102844.91;;;16.61;99.65
37860;BME280;23698;52.014;5.190;2024-01-25T05:13:19;102844.63;;;16.33;100.00
37860;BME280;23698;52.014;5.190;2024-01-25T05:16:06;102839.84;;;16.04;100.00
37860;BME280;23698;52.014;5.190;2024-01-25T05:18:52;102847.09;;;17.27;94.30
37860;BME280;23698;52.014;5.190;2024-01-25T05:21:39;102852.78;;;16.18;100.00
37860;BME280;23698;52.014;5.190;2024-01-25T05:24:26;102860.81;;;16.20;100.00
37860;BME280;23698;52.014;5.190;2024-01-25T05:27:14;102861.22;;;16.32;100.00
37860;BME280;23698;52.014;5.190;2024-01-25T05:30:00;102857.31;;;15.55;100.00
37860;BME280;23698;52.014;5.190;2024-01-25T05:32:48;102853.97;;;15.84;100.00
37860;BME280;23698;52.014;5.190;2024-01-25T05:35:35;102847.31;;;16.41;100.00
37860;BME280;23698;52.014;5.190;2024-01-25T05:38:22;102853.28;;;15.82;100.00
37860;BME280;23698;52.014;5.190;2024-01-25T05:41:08;102854.75;;;16.24;100.00
37860;BME280;23698;52.014;5.190;2024-01-25T05:43:56;102864.97;;;16.62;99.85
37860;BME280;23698;52.014;5.190;2024-01-25T05:46:43;102867.59;;;16.70;98.35
37860;BME280;23698;52.014;5.190;2024-01-25T05:49:30;102875.47;;;16.50;99.91
37860;BME280;23698;52.014;5.190;2024-01-25T05:52:17;102872.91;;;16.26;100.00
37860;BME280;23698;52.014;5.190;2024-01-25T05:55:05;102875.44;;;16.58;97.70
37860;BME280;23698;52.014;5.190;2024-01-25T05:57:51;102864.28;;;16.60;96.60
37860;BME280;23698;52.014;5.190;2024-01-25T06:00:39;102856.00;;;15.74;100.00
37860;BME280;23698;52.014;5.190;2024-01-25T06:03:26;102850.69;;;16.20;100.00
37860;BME280;23698;52.014;5.190;2024-01-25T06:06:12;102853.13;;;16.15;100.00
37860;BME280;23698;52.014;5.190;2024-01-25T06:08:59;102859.16;;;17.03;94.97
37860;BME280;23698;52.014;5.190;2024-01-25T06:11:57;102857.25;;;16.42;94.73
37860;BME280;23698;52.014;5.190;2024-01-25T06:14:44;102871.47;;;16.84;92.88
37860;BME280;23698;52.014;5.190;2024-01-25T06:17:32;102874.66;;;17.11;89.24
37860;BME280;23698;52.014;5.190;2024-01-25T06:20:18;102866.44;;;17.11;86.16
37860;BME280;23698;52.014;5.190;2024-01-25T06:23:05;102869.84;;;17.13;85.65
37860;BME280;23698;52.014;5.190;2024-01-25T06:25:52;102859.44;;;16.93;85.23
37860;BME280;23698;52.014;5.190;2024-01-25T06:28:38;102861.75;;;16.58;88.64
37860;BME280;23698;52.014;5.190;2024-01-25T06:31:26;102873.78;;;16.95;86.46
37860;BME280;23698;52.014;5.190;2024-01-25T06:34:14;102880.16;;;16.88;84.59
37860;BME280;23698;52.014;5.190;2024-01-25T06:37:01;102882.19;;;16.94;83.82
37860;BME280;23698;52.014;5.190;2024-01-25T06:39:48;102872.84;;;16.80;84.32
37860;BME280;23698;52.014;5.190;2024-01-25T06:42:34;102880.28;;;16.48;89.25
37860;BME280;23698;52.014;5.190;2024-01-25T06:45:21;102878.97;;;17.28;84.82
37860;BME280;23698;52.014;5.190;2024-01-25T06:48:07;102884.72;;;17.48;82.49
37860;BME280;23698;52.014;5.190;2024-01-25T06:50:56;102887.47;;;17.33;82.66
37860;BME280;23698;52.014;5.190;2024-01-25T06:53:43;102883.69;;;16.96;83.45
37860;BME280;23698;52.014;5.190;2024-01-25T06:56:29;102871.94;;;16.41;87.87
37860;BME280;23698;52.014;5.190;2024-01-25T06:59:16;102868.91;;;17.06;85.41
37860;BME280;23698;52.014;5.190;2024-01-25T07:02:04;102872.00;;;17.03;87.58
37860;BME280;23698;52.014;5.190;2024-01-25T07:04:51;102879.72;;;17.67;83.31
37860;BME280;23698;52.014;5.190;2024-01-25T07:07:41;102890.38;;;17.47;83.13
37860;BME280;23698;52.014;5.190;2024-01-25T07:10:28;102888.03;;;17.73;82.51
37860;BME280;23698;52.014;5.190;2024-01-25T07:13:14;102882.53;;;17.29;82.86
37860;BME280;23698;52.014;5.190;2024-01-25T07:16:01;102871.31;;;16.31;92.61
37860;BME280;23698;52.014;5.190;2024-01-25T07:18:49;102881.13;;;16.72;91.87
37860;BME280;23698;52.014;5.190;2024-01-25T07:21:36;102880.59;;;16.99;88.98
37860;BME280;23698;52.014;5.190;2024-01-25T07:24:23;102884.72;;;17.78;84.55
37860;BME280;23698;52.014;5.190;2024-01-25T07:27:11;102887.03;;;17.89;82.03
37860;BME280;23698;52.014;5.190;2024-01-25T07:29:58;102886.81;;;17.76;82.16
37860;BME280;23698;52.014;5.190;2024-01-25T07:32:44;102893.22;;;17.83;81.48
37860;BME280;23698;52.014;5.190;2024-01-25T07:35:31;102892.34;;;16.85;86.78
37860;BME280;23698;52.014;5.190;2024-01-25T07:38:18;102880.63;;;17.14;87.16
37860;BME280;23698;52.014;5.190;2024-01-25T07:41:06;102886.13;;;17.59;82.89
37860;BME280;23698;52.014;5.190;2024-01-25T07:43:53;102889.34;;;16.49;93.33
37860;BME280;23698;52.014;5.190;2024-01-25T07:46:40;102896.00;;;17.01;92.26
37860;BME280;23698;52.014;5.190;2024-01-25T07:49:27;102889.72;;;16.69;93.29
37860;BME280;23698;52.014;5.190;2024-01-25T07:52:14;102886.31;;;17.58;88.34
37860;BME280;23698;52.014;5.190;2024-01-25T07:55:00;102893.63;;;17.35;89.31
37860;BME280;23698;52.014;5.190;2024-01-25T07:57:52;102888.75;;;17.08;91.25
37860;BME280;23698;52.014;5.190;2024-01-25T08:00:38;102907.22;;;16.36;100.00
37860;BME280;23698;52.014;5.190;2024-01-25T08:03:25;102908.59;;;16.64;99.57
37860;BME280;23698;52.014;5.190;2024-01-25T08:06:11;102898.34;;;16.34;100.00
37860;BME280;23698;52.014;5.190;2024-01-25T08:08:59;102884.69;;;17.04;100.00
37860;BME280;23698;52.014;5.190;2024-01-25T08:11:46;102883.06;;;16.40;100.00
37860;BME280;23698;52.014;5.190;2024-01-25T08:14:34;102881.44;;;15.27;100.00
37860;BME280;23698;52.014;5.190;2024-01-25T08:17:20;102874.19;;;16.61;100.00
37860;BME280;23698;52.014;5.190;2024-01-25T08:20:07;102886.88;;;17.23;100.00
37860;BME280;23698;52.014;5.190;2024-01-25T08:22:54;102903.81;;;16.03;100.00
37860;BME280;23698;52.014;5.190;2024-01-25T08:25:42;102913.47;;;16.99;100.00
37860;BME280;23698;52.014;5.190;2024-01-25T08:28:28;102909.34;;;17.18;100.00
37860;BME280;23698;52.014;5.190;2024-01-25T08:31:16;102897.09;;;17.29;100.00
37860;BME280;23698;52.014;5.190;2024-01-25T08:34:03;102870.22;;;17.10;100.00
37860;BME280;23698;52.014;5.190;2024-01-25T08:36:50;102881.31;;;16.70;100.00
37860;BME280;23698;52.014;5.190;2024-01-25T08:39:37;102897.03;;;17.67;99.54
37860;BME280;23698;52.014;5.190;2024-01-25T08:42:23;102896.66;;;18.80;93.22
37860;BME280;23698;52.014;5.190;2024-01-25T08:45:10;102886.75;;;19.00;88.87
37860;BME280;23698;52.014;5.190;2024-01-25T08:48:02;102906.75;;;19.16;87.14
37860;BME280;23698;52.014;5.190;2024-01-25T08:50:49;102907.81;;;18.72;88.28
37860;BME280;23698;52.014;5.190;2024-01-25T08:53:39;102920.41;;;18.66;91.29
37860;BME280;23698;52.014;5.190;2024-01-25T08:56:25;102919.13;;;16.98;100.00
37860;BME280;23698;52.014;5.190;2024-01-25T08:59:12;102918.16;;;16.91;100.00
37860;BME280;23698;52.014;5.190;2024-01-25T09:01:58;102906.06;;;17.38;100.00
37860;BME280;23698;52.014;5.190;2024-01-25T09:04:47;102913.50;;;17.14;100.00
37860;BME280;23698;52.014;5.190;2024-01-25T09:07:33;102910.06;;;17.50;100.00
37860;BME280;23698;52.014;5.190;2024-01-25T09:10:20;102910.81;;;17.59;100.00
37860;BME280;23698;52.014;5.190;2024-01-25T09:13:07;102913.63;;;17.21;100.00
37860;BME280;23698;52.014;5.190;2024-01-25T09:15:53;102913.41;;;17.76;100.00
37860;BME280;23698;52.014;5.190;2024-01-25T09:18:40;102919.16;;;17.81;100.00
37860;BME280;23698;52.014;5.190;2024-01-25T09:21:28;102914.22;;;17.61;100.00
37860;BME280;23698;52.014;5.190;2024-01-25T09:24:15;102906.69;;;18.44;100.00
37860;BME280;23698;52.014;5.190;2024-01-25T09:27:01;102897.69;;;18.94;100.00
37860;BME280;23698;52.014;5.190;2024-01-25T09:29:49;102896.75;;;17.62;100.00
37860;BME280;23698;52.014;5.190;2024-01-25T09:32:36;102898.81;;;17.45;100.00
37860;BME280;23698;52.014;5.190;2024-01-25T09:35:23;102902.50;;;17.52;100.00
37860;BME280;23698;52.014;5.190;2024-01-25T09:38:11;102900.03;;;19.88;99.69
37860;BME280;23698;52.014;5.190;2024-01-25T09:40:57;102902.84;;;19.03;100.00
37860;BME280;23698;52.014;5.190;2024-01-25T09:43:45;102913.69;;;18.47;100.00
37860;BME280;23698;52.014;5.190;2024-01-25T09:46:32;102913.94;;;18.52;100.00
37860;BME280;23698;52.014;5.190;2024-01-25T09:49:19;102902.59;;;18.98;100.00
37860;BME280;23698;52.014;5.190;2024-01-25T09:52:10;102890.00;;;18.24;100.00
37860;BME280;23698;52.014;5.190;2024-01-25T09:55:00;102889.66;;;17.98;100.00
37860;BME280;23698;52.014;5.190;2024-01-25T09:57:48;102884.34;;;18.91;100.00
37860;BME280;23698;52.014;5.190;2024-01-25T10:00:35;102875.75;;;19.29;100.00
37860;BME280;23698;52.014;5.190;2024-01-25T10:03:22;102885.34;;;18.25;100.00
37860;BME280;23698;52.014;5.190;2024-01-25T10:06:10;102884.00;;;19.00;100.00
37860;BME280;23698;52.014;5.190;2024-01-25T10:08:58;102872.78;;;20.00;98.11
37860;BME280;23698;52.014;5.190;2024-01-25T10:11:46;102870.44;;;20.65;93.35
37860;BME280;23698;52.014;5.190;2024-01-25T10:14:48;102884.00;;;18.79;100.00
37860;BME280;23698;52.014;5.190;2024-01-25T10:17:34;102876.97;;;19.89;100.00
37860;BME280;23698;52.014;5.190;2024-01-25T10:20:42;102872.72;;;17.94;100.00
37860;BME280;23698;52.014;5.190;2024-01-25T10:23:29;102877.44;;;17.55;100.00
37860;BME280;23698;52.014;5.190;2024-01-25T10:26:16;102873.66;;;17.42;100.00
37860;BME280;23698;52.014;5.190;2024-01-25T10:29:04;102884.41;;;18.18;100.00
37860;BME280;23698;52.014;5.190;2024-01-25T10:31:52;102886.78;;;17.61;100.00
37860;BME280;23698;52.014;5.190;2024-01-25T10:34:39;102888.25;;;17.87;100.00
37860;BME280;23698;52.014;5.190;2024-01-25T10:37:27;102893.38;;;18.63;100.00
37860;BME280;23698;52.014;5.190;2024-01-25T10:40:14;102882.06;;;18.94;100.00
37860;BME280;23698;52.014;5.190;2024-01-25T10:43:03;102885.00;;;20.46;100.00
37860;BME280;23698;52.014;5.190;2024-01-25T10:45:52;102882.09;;;20.74;96.82
37860;BME280;23698;52.014;5.190;2024-01-25T10:48:44;102901.06;;;18.96;100.00
37860;BME280;23698;52.014;5.190;2024-01-25T10:51:31;102890.75;;;18.98;100.00
37860;BME280;23698;52.014;5.190;2024-01-25T10:54:19;102897.50;;;18.01;100.00
37860;BME280;23698;52.014;5.190;2024-01-25T10:57:05;102882.53;;;18.40;100.00
37860;BME280;23698;52.014;5.190;2024-01-25T10:59:52;102865.38;;;18.53;100.00
37860;BME280;23698;52.014;5.190;2024-01-25T11:02:40;102870.81;;;18.31;100.00
37860;BME280;23698;52.014;5.190;2024-01-25T11:05:27;102866.53;;;18.86;100.00
37860;BME280;23698;52.014;5.190;2024-01-25T11:08:18;102859.69;;;19.32;100.00
37860;BME280;23698;52.014;5.190;2024-01-25T11:11:06;102833.03;;;18.98;100.00
37860;BME280;23698;52.014;5.190;2024-01-25T11:13:55;102831.69;;;19.98;100.00
37860;BME280;23698;52.014;5.190;2024-01-25T11:16:41;102833.28;;;20.48;100.00
37860;BME280;23698;52.014;5.190;2024-01-25T11:19:33;102831.81;;;20.25;97.92
37860;BME280;23698;52.014;5.190;2024-01-25T11:22:19;102811.06;;;20.96;94.80
37860;BME280;23698;52.014;5.190;2024-01-25T11:25:12;102802.03;;;21.61;92.08
37860;BME280;23698;52.014;5.190;2024-01-25T11:28:00;102792.59;;;20.56;96.20
37860;BME280;23698;52.014;5.190;2024-01-25T11:30:47;102799.75;;;20.11;100.00
37860;BME280;23698;52.014;5.190;2024-01-25T11:33:34;102805.34;;;20.91;97.55
37860;BME280;23698;52.014;5.190;2024-01-25T11:36:22;102815.69;;;20.22;100.00
37860;BME280;23698;52.014;5.190;2024-01-25T11:39:09;102818.34;;;18.41;100.00
37860;BME280;23698;52.014;5.190;2024-01-25T11:41:56;102804.66;;;18.04;100.00
37860;BME280;23698;52.014;5.190;2024-01-25T11:44:42;102788.38;;;19.72;100.00
37860;BME280;23698;52.014;5.190;2024-01-25T11:47:29;102785.44;;;20.75;100.00
37860;BME280;23698;52.014;5.190;2024-01-25T11:50:16;102776.72;;;20.18;100.00
37860;BME280;23698;52.014;5.190;2024-01-25T11:53:04;102765.69;;;20.18;100.00
37860;BME280;23698;52.014;5.190;2024-01-25T11:55:52;102755.97;;;21.61;94.49
37860;BME280;23698;52.014;5.190;2024-01-25T11:58:40;102761.38;;;18.99;100.00
37860;BME280;23698;52.014;5.190;2024-01-25T12:01:28;102760.19;;;18.59;100.00
37860;BME280;23698;52.014;5.190;2024-01-25T12:04:14;102745.69;;;18.65;100.00
37860;BME280;23698;52.014;5.190;2024-01-25T12:07:01;102736.16;;;18.89;100.00
37860;BME280;23698;52.014;5.190;2024-01-25T12:09:58;102744.81;;;17.42;100.00
37860;BME280;23698;52.014;5.190;2024-01-25T12:12:45;102751.59;;;18.19;100.00
37860;BME280;23698;52.014;5.190;2024-01-25T12:15:34;102744.16;;;18.84;100.00
37860;BME280;23698;52.014;5.190;2024-01-25T12:18:21;102728.78;;;21.00;100.00
37860;BME280;23698;52.014;5.190;2024-01-25T12:21:08;102727.97;;;19.99;100.00
37860;BME280;23698;52.014;5.190;2024-01-25T12:23:55;102730.94;;;19.42;100.00
37860;BME280;23698;52.014;5.190;2024-01-25T12:26:42;102730.47;;;21.07;100.00
37860;BME280;23698;52.014;5.190;2024-01-25T12:29:29;102733.78;;;21.23;95.42
37860;BME280;23698;52.014;5.190;2024-01-25T12:32:16;102731.72;;;19.85;100.00
37860;BME280;23698;52.014;5.190;2024-01-25T12:35:04;102728.75;;;19.24;100.00
37860;BME280;23698;52.014;5.190;2024-01-25T12:37:52;102725.38;;;19.77;100.00
37860;BME280;23698;52.014;5.190;2024-01-25T12:40:38;102728.81;;;20.19;100.00
37860;BME280;23698;52.014;5.190;2024-01-25T12:43:26;102722.28;;;20.67;100.00
37860;BME280;23698;52.014;5.190;2024-01-25T12:46:14;102722.03;;;18.71;100.00
37860;BME280;23698;52.014;5.190;2024-01-25T12:49:11;102711.53;;;19.09;100.00
37860;BME280;23698;52.014;5.190;2024-01-25T12:51:58;102707.63;;;20.87;100.00
37860;BME280;23698;52.014;5.190;2024-01-25T12:54:45;102703.59;;;20.56;100.00
37860;BME280;23698;52.014;5.190;2024-01-25T12:57:32;102701.72;;;20.50;100.00
37860;BME280;23698;52.014;5.190;2024-01-25T13:00:21;102698.44;;;21.97;91.67
37860;BME280;23698;52.014;5.190;2024-01-25T13:03:07;102691.78;;;22.04;88.55
37860;BME280;23698;52.014;5.190;2024-01-25T13:05:54;102684.34;;;22.05;90.31
37860;BME280;23698;52.014;5.190;2024-01-25T13:08:41;102681.91;;;21.58;90.04
37860;BME280;23698;52.014;5.190;2024-01-25T13:11:27;102682.91;;;22.71;85.49
37860;BME280;23698;52.014;5.190;2024-01-25T13:14:14;102671.34;;;21.42;90.32
37860;BME280;23698;52.014;5.190;2024-01-25T13:17:02;102662.63;;;22.40;87.90
37860;BME280;23698;52.014;5.190;2024-01-25T13:19:48;102661.19;;;20.84;96.97
37860;BME280;23698;52.014;5.190;2024-01-25T13:22:35;102660.06;;;18.90;100.00
37860;BME280;23698;52.014;5.190;2024-01-25T13:25:21;102647.06;;;19.93;100.00
37860;BME280;23698;52.014;5.190;2024-01-25T13:28:08;102637.03;;;21.31;97.95
37860;BME280;23698;52.014;5.190;2024-01-25T13:30:54;102645.97;;;20.48;100.00
37860;BME280;23698;52.014;5.190;2024-01-25T13:33:43;102645.97;;;20.54;100.00
37860;BME280;23698;52.014;5.190;2024-01-25T13:36:33;102634.00;;;19.27;100.00
37860;BME280;23698;52.014;5.190;2024-01-25T13:39:19;102622.44;;;19.45;100.00
37860;BME280;23698;52.014;5.190;2024-01-25T13:42:07;102634.16;;;19.80;100.00
37860;BME280;23698;52.014;5.190;2024-01-25T13:44:54;102621.59;;;20.71;100.00
37860;BME280;23698;52.014;5.190;2024-01-25T13:47:40;102623.34;;;19.79;100.00
37860;BME280;23698;52.014;5.190;2024-01-25T13:50:28;102610.47;;;19.11;100.00
37860;BME280;23698;52.014;5.190;2024-01-25T13:53:15;102603.59;;;19.42;100.00
37860;BME280;23698;52.014;5.190;2024-01-25T13:56:02;102590.44;;;19.37;100.00
37860;BME280;23698;52.014;5.190;2024-01-25T13:58:49;102583.84;;;19.12;100.00
37860;BME280;23698;52.014;5.190;2024-01-25T14:01:35;102592.81;;;19.54;100.00
37860;BME280;23698;52.014;5.190;2024-01-25T14:04:23;102588.72;;;19.16;100.00
37860;BME280;23698;52.014;5.190;2024-01-25T14:07:13;102582.38;;;19.22;100.00
37860;BME280;23698;52.014;5.190;2024-01-25T14:09:59;102587.00;;;20.75;100.00
37860;BME280;23698;52.014;5.190;2024-01-25T14:12:46;102592.25;;;19.85;100.00
37860;BME280;23698;52.014;5.190;2024-01-25T14:15:34;102579.06;;;20.27;100.00
37860;BME280;23698;52.014;5.190;2024-01-25T14:18:21;102581.31;;;22.04;97.93
37860;BME280;23698;52.014;5.190;2024-01-25T14:21:08;102578.47;;;20.97;100.00
37860;BME280;23698;52.014;5.190;2024-01-25T14:23:56;102574.66;;;19.86;100.00
37860;BME280;23698;52.014;5.190;2024-01-25T14:26:44;102580.53;;;21.02;100.00
37860;BME280;23698;52.014;5.190;2024-01-25T14:29:31;102582.88;;;20.33;100.00